sensor_id;sensor_type;location;lat;lon;timestamp;pressure;altitude;pressure_sealevel;temperature;humidity
49935;BME280;39898;41.762;26.200;2022-09-29T00:02:07;99898.00;;;19.25;nan
49935;BME280;39898;41.762;26.200;2022-09-29T00:04:34;99890.84;;;19.13;nan
49935;BME280;39898;41.762;26.200;2022-09-29T00:07:01;99893.69;;;19.10;nan
49935;BME280;39898;41.762;26.200;2022-09-29T00:09:28;99884.44;;;19.15;nan
49935;BME280;39898;41.762;26.200;2022-09-29T00:11:55;99904.31;;;19.24;nan
49935;BME280;39898;41.762;26.200;2022-09-29T00:14:22;99898.22;;;19.22;nan
49935;BME280;39898;41.762;26.200;2022-09-29T00:16:49;99886.91;;;19.18;nan
49935;BME280;39898;41.762;26.200;2022-09-29T00:19:16;99894.53;;;19.24;nan
49935;BME280;39898;41.762;26.200;2022-09-29T00:21:44;99887.78;;;19.33;nan
49935;BME280;39898;41.762;26.200;2022-09-29T00:24:10;99885.00;;;19.34;nan
49935;BME280;39898;41.762;26.200;2022-09-29T00:26:37;99886.91;;;19.18;nan
49935;BME280;39898;41.762;26.200;2022-09-29T00:29:04;99881.38;;;19.35;nan
49935;BME280;39898;41.762;26.200;2022-09-29T00:31:32;99887.97;;;19.16;nan
49935;BME280;39898;41.762;26.200;2022-09-29T00:33:59;99891.56;;;19.15;nan
49935;BME280;39898;41.762;26.200;2022-09-29T00:36:26;99899.31;;;18.91;nan
49935;BME280;39898;41.762;26.200;2022-09-29T00:38:57;99881.25;;;18.82;nan
49935;BME280;39898;41.762;26.200;2022-09-29T00:41:27;99863.19;;;18.73;nan
49935;BME280;39898;41.762;26.200;2022-09-29T00:44:00;99883.84;;;18.83;nan
49935;BME280;39898;41.762;26.200;2022-09-29T00:52:04;99890.78;;;18.72;nan
49935;BME280;39898;41.762;26.200;2022-09-29T00:54:38;99897.88;;;18.71;nan
49935;BME280;39898;41.762;26.200;2022-09-29T00:57:10;99851.16;;;18.39;nan
49935;BME280;39898;41.762;26.200;2022-09-29T01:00:05;99886.97;;;18.62;nan
49935;BME280;39898;41.762;26.200;2022-09-29T01:02:40;99898.66;;;18.59;nan
49935;BME280;39898;41.762;26.200;2022-09-29T01:05:13;99891.69;;;18.57;nan
49935;BME280;39898;41.762;26.200;2022-09-29T01:07:41;99887.91;;;18.47;nan
49935;BME280;39898;41.762;26.200;2022-09-29T01:10:13;99843.78;;;18.15;nan
49935;BME280;39898;41.762;26.200;2022-09-29T01:12:46;99897.88;;;18.43;nan
49935;BME280;39898;41.762;26.200;2022-09-29T01:15:16;99897.97;;;18.42;nan
49935;BME280;39898;41.762;26.200;2022-09-29T01:17:45;99895.31;;;18.42;nan
49935;BME280;39898;41.762;26.200;2022-09-29T01:20:16;99893.06;;;18.64;nan
49935;BME280;39898;41.762;26.200;2022-09-29T01:23:16;99894.50;;;18.55;nan
49935;BME280;39898;41.762;26.200;2022-09-29T01:31:33;99867.22;;;18.08;nan
49935;BME280;39898;41.762;26.200;2022-09-29T01:34:22;99874.25;;;18.09;nan
49935;BME280;39898;41.762;26.200;2022-09-29T01:37:15;99867.28;;;17.93;nan
49935;BME280;39898;41.762;26.200;2022-09-29T01:40:09;99842.47;;;17.78;nan
49935;BME280;39898;41.762;26.200;2022-09-29T01:42:49;99847.03;;;17.76;nan
49935;BME280;39898;41.762;26.200;2022-09-29T01:45:39;99876.28;;;17.90;nan
49935;BME280;39898;41.762;26.200;2022-09-29T01:48:14;99875.50;;;17.88;nan
49935;BME280;39898;41.762;26.200;2022-09-29T01:50:50;99881.69;;;17.89;nan
49935;BME280;39898;41.762;26.200;2022-09-29T01:53:22;99878.94;;;17.90;nan
49935;BME280;39898;41.762;26.200;2022-09-29T01:55:53;99868.00;;;17.81;nan
49935;BME280;39898;41.762;26.200;2022-09-29T01:58:27;99901.16;;;17.89;nan
49935;BME280;39898;41.762;26.200;2022-09-29T02:00:59;99900.22;;;17.90;nan
49935;BME280;39898;41.762;26.200;2022-09-29T02:03:50;99880.91;;;17.87;nan
49935;BME280;39898;41.762;26.200;2022-09-29T02:06:16;99886.97;;;17.75;nan
49935;BME280;39898;41.762;26.200;2022-09-29T02:08:50;99880.00;;;17.72;nan
49935;BME280;39898;41.762;26.200;2022-09-29T02:11:18;99878.13;;;17.74;nan
49935;BME280;39898;41.762;26.200;2022-09-29T02:13:59;99851.19;;;17.66;nan
49935;BME280;39898;41.762;26.200;2022-09-29T02:16:31;99852.38;;;17.61;nan
49935;BME280;39898;41.762;26.200;2022-09-29T02:19:16;99844.25;;;17.48;nan
49935;BME280;39898;41.762;26.200;2022-09-29T02:21:45;99882.53;;;17.60;nan
49935;BME280;39898;41.762;26.200;2022-09-29T02:24:12;99860.81;;;17.53;nan
49935;BME280;39898;41.762;26.200;2022-09-29T02:26:40;99863.53;;;17.52;nan
49935;BME280;39898;41.762;26.200;2022-09-29T02:29:08;99846.13;;;17.31;nan
49935;BME280;39898;41.762;26.200;2022-09-29T02:31:36;99870.28;;;17.42;nan
49935;BME280;39898;41.762;26.200;2022-09-29T02:34:05;99875.88;;;17.53;nan
49935;BME280;39898;41.762;26.200;2022-09-29T02:42:55;99887.06;;;17.58;nan
49935;BME280;39898;41.762;26.200;2022-09-29T02:45:53;99895.09;;;17.41;nan
49935;BME280;39898;41.762;26.200;2022-09-29T03:02:38;99868.34;;;17.14;nan
49935;BME280;39898;41.762;26.200;2022-09-29T03:05:09;99885.03;;;17.47;nan
49935;BME280;39898;41.762;26.200;2022-09-29T03:07:37;99880.56;;;17.48;nan
49935;BME280;39898;41.762;26.200;2022-09-29T03:10:06;99887.31;;;17.69;nan
49935;BME280;39898;41.762;26.200;2022-09-29T03:12:33;99901.44;;;17.85;nan
49935;BME280;39898;41.762;26.200;2022-09-29T03:15:01;99915.19;;;17.91;nan
49935;BME280;39898;41.762;26.200;2022-09-29T03:17:28;99901.25;;;17.88;nan
49935;BME280;39898;41.762;26.200;2022-09-29T03:19:54;99904.09;;;17.69;nan
49935;BME280;39898;41.762;26.200;2022-09-29T03:22:21;99902.91;;;17.59;nan
49935;BME280;39898;41.762;26.200;2022-09-29T03:24:48;99904.31;;;17.66;nan
49935;BME280;39898;41.762;26.200;2022-09-29T03:27:14;99909.25;;;17.57;nan
49935;BME280;39898;41.762;26.200;2022-09-29T03:29:41;99906.13;;;17.80;nan
49935;BME280;39898;41.762;26.200;2022-09-29T03:32:08;99910.94;;;17.89;nan
49935;BME280;39898;41.762;26.200;2022-09-29T03:34:35;99924.03;;;17.92;nan
49935;BME280;39898;41.762;26.200;2022-09-29T03:37:02;99908.41;;;17.72;nan
49935;BME280;39898;41.762;26.200;2022-09-29T03:39:29;99925.78;;;17.77;nan
49935;BME280;39898;41.762;26.200;2022-09-29T03:41:56;99929.97;;;17.81;nan
49935;BME280;39898;41.762;26.200;2022-09-29T03:44:23;99932.31;;;17.72;nan
49935;BME280;39898;41.762;26.200;2022-09-29T03:46:49;99922.00;;;17.81;nan
49935;BME280;39898;41.762;26.200;2022-09-29T03:49:16;99902.22;;;17.71;nan
49935;BME280;39898;41.762;26.200;2022-09-29T03:51:43;99920.88;;;17.85;nan
49935;BME280;39898;41.762;26.200;2022-09-29T03:54:10;99919.63;;;17.61;nan
49935;BME280;39898;41.762;26.200;2022-09-29T03:56:37;99914.66;;;17.40;nan
49935;BME280;39898;41.762;26.200;2022-09-29T03:59:05;99912.84;;;17.40;nan
49935;BME280;39898;41.762;26.200;2022-09-29T04:01:35;99929.75;;;17.55;nan
49935;BME280;39898;41.762;26.200;2022-09-29T04:04:04;99917.75;;;17.63;nan
49935;BME280;39898;41.762;26.200;2022-09-29T04:06:32;99931.09;;;17.31;nan
49935;BME280;39898;41.762;26.200;2022-09-29T04:08:59;99923.03;;;17.17;nan
49935;BME280;39898;41.762;26.200;2022-09-29T04:11:26;99926.63;;;17.00;nan
49935;BME280;39898;41.762;26.200;2022-09-29T04:13:53;99938.53;;;17.09;nan
49935;BME280;39898;41.762;26.200;2022-09-29T04:16:20;99943.59;;;17.13;nan
49935;BME280;39898;41.762;26.200;2022-09-29T04:18:47;99928.75;;;17.09;nan
49935;BME280;39898;41.762;26.200;2022-09-29T04:21:13;99908.47;;;17.08;nan
49935;BME280;39898;41.762;26.200;2022-09-29T04:23:42;99923.53;;;17.08;nan
49935;BME280;39898;41.762;26.200;2022-09-29T04:26:09;99911.63;;;16.99;nan
49935;BME280;39898;41.762;26.200;2022-09-29T04:28:36;99927.53;;;16.99;nan
49935;BME280;39898;41.762;26.200;2022-09-29T04:31:04;99914.03;;;16.88;nan
49935;BME280;39898;41.762;26.200;2022-09-29T04:33:31;99935.75;;;16.95;nan
49935;BME280;39898;41.762;26.200;2022-09-29T04:35:59;99935.94;;;16.92;nan
49935;BME280;39898;41.762;26.200;2022-09-29T04:38:26;99931.88;;;16.85;nan
49935;BME280;39898;41.762;26.200;2022-09-29T04:40:53;99950.00;;;17.09;nan
49935;BME280;39898;41.762;26.200;2022-09-29T04:43:19;99915.22;;;16.83;nan
49935;BME280;39898;41.762;26.200;2022-09-29T04:45:46;99949.63;;;16.84;nan
49935;BME280;39898;41.762;26.200;2022-09-29T04:48:13;99954.06;;;16.84;nan
49935;BME280;39898;41.762;26.200;2022-09-29T04:50:40;99949.97;;;16.94;nan
49935;BME280;39898;41.762;26.200;2022-09-29T04:53:09;99953.66;;;17.07;nan
49935;BME280;39898;41.762;26.200;2022-09-29T04:55:37;99956.75;;;17.15;nan
49935;BME280;39898;41.762;26.200;2022-09-29T04:58:04;99967.91;;;17.21;nan
49935;BME280;39898;41.762;26.200;2022-09-29T05:00:30;99967.50;;;17.29;nan
49935;BME280;39898;41.762;26.200;2022-09-29T05:02:58;99956.88;;;17.29;nan
49935;BME280;39898;41.762;26.200;2022-09-29T05:05:26;99964.69;;;17.32;nan
49935;BME280;39898;41.762;26.200;2022-09-29T05:07:52;99950.81;;;17.42;nan
49935;BME280;39898;41.762;26.200;2022-09-29T05:10:19;99968.97;;;17.50;nan
49935;BME280;39898;41.762;26.200;2022-09-29T05:12:47;99968.72;;;17.54;nan
49935;BME280;39898;41.762;26.200;2022-09-29T05:15:17;99946.03;;;17.49;nan
49935;BME280;39898;41.762;26.200;2022-09-29T05:17:49;99975.72;;;17.71;nan
49935;BME280;39898;41.762;26.200;2022-09-29T05:20:15;99956.97;;;17.74;nan
49935;BME280;39898;41.762;26.200;2022-09-29T05:22:42;99986.72;;;18.10;nan
49935;BME280;39898;41.762;26.200;2022-09-29T05:25:09;99967.59;;;18.19;nan
49935;BME280;39898;41.762;26.200;2022-09-29T05:27:36;99989.44;;;18.39;nan
49935;BME280;39898;41.762;26.200;2022-09-29T05:30:04;99984.44;;;18.49;nan
49935;BME280;39898;41.762;26.200;2022-09-29T05:32:31;99995.97;;;18.63;nan
49935;BME280;39898;41.762;26.200;2022-09-29T05:34:57;99995.13;;;18.77;nan
49935;BME280;39898;41.762;26.200;2022-09-29T05:37:24;100000.38;;;18.92;nan
49935;BME280;39898;41.762;26.200;2022-09-29T05:39:51;99982.78;;;19.04;nan
49935;BME280;39898;41.762;26.200;2022-09-29T05:42:18;99983.66;;;19.19;nan
49935;BME280;39898;41.762;26.200;2022-09-29T05:44:45;99983.16;;;19.26;nan
49935;BME280;39898;41.762;26.200;2022-09-29T05:47:12;99977.94;;;19.39;nan
49935;BME280;39898;41.762;26.200;2022-09-29T05:49:39;99980.78;;;19.50;nan
49935;BME280;39898;41.762;26.200;2022-09-29T05:52:06;99976.56;;;19.60;nan
49935;BME280;39898;41.762;26.200;2022-09-29T05:54:32;99975.47;;;19.76;nan
49935;BME280;39898;41.762;26.200;2022-09-29T05:56:59;99977.09;;;19.79;nan
49935;BME280;39898;41.762;26.200;2022-09-29T05:59:26;99974.50;;;20.04;nan
49935;BME280;39898;41.762;26.200;2022-09-29T06:01:52;99971.06;;;20.16;nan
49935;BME280;39898;41.762;26.200;2022-09-29T06:04:19;99973.34;;;20.22;nan
49935;BME280;39898;41.762;26.200;2022-09-29T06:06:46;99964.63;;;20.45;nan
49935;BME280;39898;41.762;26.200;2022-09-29T06:09:13;99965.59;;;20.56;nan
49935;BME280;39898;41.762;26.200;2022-09-29T06:11:40;99966.03;;;20.88;nan
49935;BME280;39898;41.762;26.200;2022-09-29T06:14:07;99960.06;;;21.09;nan
49935;BME280;39898;41.762;26.200;2022-09-29T06:16:34;99955.13;;;21.16;nan
49935;BME280;39898;41.762;26.200;2022-09-29T06:19:02;99959.81;;;21.38;nan
49935;BME280;39898;41.762;26.200;2022-09-29T06:21:30;99954.66;;;21.47;nan
49935;BME280;39898;41.762;26.200;2022-09-29T06:23:57;99963.66;;;21.70;nan
49935;BME280;39898;41.762;26.200;2022-09-29T06:26:25;99965.94;;;21.76;nan
49935;BME280;39898;41.762;26.200;2022-09-29T06:28:52;99964.34;;;21.97;nan
49935;BME280;39898;41.762;26.200;2022-09-29T06:31:21;99938.56;;;21.96;nan
49935;BME280;39898;41.762;26.200;2022-09-29T06:33:48;99960.13;;;22.05;nan
49935;BME280;39898;41.762;26.200;2022-09-29T06:36:21;99953.41;;;22.23;nan
49935;BME280;39898;41.762;26.200;2022-09-29T06:39:09;99952.41;;;22.24;nan
49935;BME280;39898;41.762;26.200;2022-09-29T06:41:36;99935.13;;;22.17;nan
49935;BME280;39898;41.762;26.200;2022-09-29T06:44:03;99951.56;;;22.24;nan
49935;BME280;39898;41.762;26.200;2022-09-29T06:46:30;99951.81;;;22.55;nan
49935;BME280;39898;41.762;26.200;2022-09-29T06:48:57;99917.97;;;22.54;nan
49935;BME280;39898;41.762;26.200;2022-09-29T06:51:24;99942.47;;;22.94;nan
49935;BME280;39898;41.762;26.200;2022-09-29T06:54:03;99953.34;;;23.14;nan
49935;BME280;39898;41.762;26.200;2022-09-29T06:56:37;99960.41;;;23.15;nan
49935;BME280;39898;41.762;26.200;2022-09-29T06:59:04;99954.34;;;23.24;nan
49935;BME280;39898;41.762;26.200;2022-09-29T07:01:30;99954.84;;;23.29;nan
49935;BME280;39898;41.762;26.200;2022-09-29T07:03:57;99956.53;;;23.53;nan
49935;BME280;39898;41.762;26.200;2022-09-29T07:06:26;99965.41;;;23.64;nan
49935;BME280;39898;41.762;26.200;2022-09-29T07:08:57;99959.81;;;23.45;nan
49935;BME280;39898;41.762;26.200;2022-09-29T07:11:25;99953.81;;;23.64;nan
49935;BME280;39898;41.762;26.200;2022-09-29T07:13:52;99961.00;;;23.74;nan
49935;BME280;39898;41.762;26.200;2022-09-29T07:16:21;99966.66;;;23.92;nan
49935;BME280;39898;41.762;26.200;2022-09-29T07:18:51;99936.31;;;23.80;nan
49935;BME280;39898;41.762;26.200;2022-09-29T07:21:18;99971.22;;;24.23;nan
49935;BME280;39898;41.762;26.200;2022-09-29T07:23:48;99956.03;;;24.33;nan
49935;BME280;39898;41.762;26.200;2022-09-29T07:26:15;99952.47;;;24.43;nan
49935;BME280;39898;41.762;26.200;2022-09-29T07:28:43;99944.53;;;24.42;nan
49935;BME280;39898;41.762;26.200;2022-09-29T07:31:13;99958.03;;;24.51;nan
49935;BME280;39898;41.762;26.200;2022-09-29T07:33:46;99913.41;;;24.39;nan
49935;BME280;39898;41.762;26.200;2022-09-29T07:36:16;99953.09;;;24.67;nan
49935;BME280;39898;41.762;26.200;2022-09-29T07:38:48;99948.47;;;24.79;nan
49935;BME280;39898;41.762;26.200;2022-09-29T07:41:18;99953.97;;;24.98;nan
49935;BME280;39898;41.762;26.200;2022-09-29T07:43:45;99966.06;;;25.33;nan
49935;BME280;39898;41.762;26.200;2022-09-29T07:46:12;99955.84;;;25.37;nan
49935;BME280;39898;41.762;26.200;2022-09-29T07:48:39;99932.59;;;25.26;nan
49935;BME280;39898;41.762;26.200;2022-09-29T07:51:09;99957.06;;;25.63;nan
49935;BME280;39898;41.762;26.200;2022-09-29T07:53:36;99962.38;;;25.84;nan
49935;BME280;39898;41.762;26.200;2022-09-29T07:58:40;99949.66;;;26.24;nan
49935;BME280;39898;41.762;26.200;2022-09-29T08:01:09;99955.91;;;26.53;nan
49935;BME280;39898;41.762;26.200;2022-09-29T08:03:39;99953.47;;;26.78;nan
49935;BME280;39898;41.762;26.200;2022-09-29T08:06:06;99951.63;;;26.69;nan
49935;BME280;39898;41.762;26.200;2022-09-29T08:08:37;99950.91;;;26.77;nan
49935;BME280;39898;41.762;26.200;2022-09-29T08:11:09;99957.06;;;27.25;nan
49935;BME280;39898;41.762;26.200;2022-09-29T08:13:46;99950.94;;;27.23;nan
49935;BME280;39898;41.762;26.200;2022-09-29T08:16:13;99956.56;;;27.39;nan
49935;BME280;39898;41.762;26.200;2022-09-29T08:18:40;99950.75;;;27.34;nan
49935;BME280;39898;41.762;26.200;2022-09-29T08:21:09;99954.06;;;27.55;nan
49935;BME280;39898;41.762;26.200;2022-09-29T08:23:38;99956.31;;;27.59;nan
49935;BME280;39898;41.762;26.200;2022-09-29T08:26:06;99950.56;;;27.72;nan
49935;BME280;39898;41.762;26.200;2022-09-29T08:28:35;99941.69;;;28.07;nan
49935;BME280;39898;41.762;26.200;2022-09-29T08:31:07;99943.53;;;28.41;nan
49935;BME280;39898;41.762;26.200;2022-09-29T08:33:35;99940.75;;;28.51;nan
49935;BME280;39898;41.762;26.200;2022-09-29T08:36:02;99941.91;;;28.48;nan
49935;BME280;39898;41.762;26.200;2022-09-29T08:38:31;99944.69;;;28.56;nan
49935;BME280;39898;41.762;26.200;2022-09-29T08:41:03;99943.16;;;28.79;nan
49935;BME280;39898;41.762;26.200;2022-09-29T08:43:33;99931.75;;;28.93;nan
49935;BME280;39898;41.762;26.200;2022-09-29T08:46:27;99941.97;;;29.25;nan
49935;BME280;39898;41.762;26.200;2022-09-29T08:49:09;99933.13;;;29.15;nan
49935;BME280;39898;41.762;26.200;2022-09-29T08:51:50;99932.28;;;28.97;nan
49935;BME280;39898;41.762;26.200;2022-09-29T08:54:26;99932.44;;;29.21;nan
49935;BME280;39898;41.762;26.200;2022-09-29T08:57:05;99926.91;;;29.64;nan
49935;BME280;39898;41.762;26.200;2022-09-29T08:59:33;99925.50;;;29.52;nan
49935;BME280;39898;41.762;26.200;2022-09-29T09:02:17;99927.88;;;29.21;nan
49935;BME280;39898;41.762;26.200;2022-09-29T09:15:45;99924.09;;;29.48;nan
49935;BME280;39898;41.762;26.200;2022-09-29T09:18:33;99920.22;;;30.00;nan
49935;BME280;39898;41.762;26.200;2022-09-29T09:26:43;99911.47;;;30.38;nan
49935;BME280;39898;41.762;26.200;2022-09-29T09:32:03;99904.53;;;30.76;nan
49935;BME280;39898;41.762;26.200;2022-09-29T09:34:49;99912.66;;;30.76;nan
49935;BME280;39898;41.762;26.200;2022-09-29T09:37:27;99905.31;;;30.92;nan
49935;BME280;39898;41.762;26.200;2022-09-29T09:40:02;99905.28;;;31.08;nan
49935;BME280;39898;41.762;26.200;2022-09-29T09:42:36;99912.91;;;31.13;nan
49935;BME280;39898;41.762;26.200;2022-09-29T09:45:17;99910.16;;;31.21;nan
49935;BME280;39898;41.762;26.200;2022-09-29T09:47:54;99922.88;;;31.28;nan
49935;BME280;39898;41.762;26.200;2022-09-29T09:50:23;99914.47;;;31.07;nan
49935;BME280;39898;41.762;26.200;2022-09-29T09:52:55;99912.22;;;31.11;nan
49935;BME280;39898;41.762;26.200;2022-09-29T09:55:25;99913.44;;;31.08;nan
49935;BME280;39898;41.762;26.200;2022-09-29T09:58:34;99912.44;;;30.93;nan
49935;BME280;39898;41.762;26.200;2022-09-29T10:01:05;99919.59;;;30.78;nan
49935;BME280;39898;41.762;26.200;2022-09-29T10:03:37;99919.41;;;30.72;nan
49935;BME280;39898;41.762;26.200;2022-09-29T10:06:07;99926.22;;;30.76;nan
49935;BME280;39898;41.762;26.200;2022-09-29T10:08:38;99918.09;;;30.76;nan
49935;BME280;39898;41.762;26.200;2022-09-29T10:11:25;99897.00;;;30.94;nan
49935;BME280;39898;41.762;26.200;2022-09-29T10:14:14;99932.56;;;31.15;nan
49935;BME280;39898;41.762;26.200;2022-09-29T10:16:55;99925.31;;;31.07;nan
49935;BME280;39898;41.762;26.200;2022-09-29T10:19:56;99934.22;;;31.40;nan
49935;BME280;39898;41.762;26.200;2022-09-29T10:22:26;99930.41;;;31.57;nan
49935;BME280;39898;41.762;26.200;2022-09-29T10:27:42;99894.91;;;31.12;nan
49935;BME280;39898;41.762;26.200;2022-09-29T10:30:22;99913.25;;;31.02;nan
49935;BME280;39898;41.762;26.200;2022-09-29T10:32:54;99900.59;;;30.86;nan
49935;BME280;39898;41.762;26.200;2022-09-29T10:35:35;99908.31;;;31.13;nan
49935;BME280;39898;41.762;26.200;2022-09-29T10:38:07;99914.59;;;31.60;nan
49935;BME280;39898;41.762;26.200;2022-09-29T10:40:55;99916.84;;;31.87;nan
49935;BME280;39898;41.762;26.200;2022-09-29T10:43:47;99900.28;;;31.66;nan
49935;BME280;39898;41.762;26.200;2022-09-29T10:46:46;99911.66;;;31.23;nan
49935;BME280;39898;41.762;26.200;2022-09-29T10:49:17;99900.59;;;30.94;nan
49935;BME280;39898;41.762;26.200;2022-09-29T10:52:05;99887.06;;;31.25;nan
49935;BME280;39898;41.762;26.200;2022-09-29T10:54:36;99896.84;;;31.72;nan
49935;BME280;39898;41.762;26.200;2022-09-29T10:57:13;99888.59;;;31.96;nan
49935;BME280;39898;41.762;26.200;2022-09-29T10:59:45;99885.28;;;32.09;nan
49935;BME280;39898;41.762;26.200;2022-09-29T11:02:29;99874.25;;;32.25;nan
49935;BME280;39898;41.762;26.200;2022-09-29T11:04:59;99873.31;;;32.18;nan
49935;BME280;39898;41.762;26.200;2022-09-29T11:07:28;99885.56;;;32.14;nan
49935;BME280;39898;41.762;26.200;2022-09-29T11:09:57;99877.75;;;32.56;nan
49935;BME280;39898;41.762;26.200;2022-09-29T11:12:27;99880.31;;;32.72;nan
49935;BME280;39898;41.762;26.200;2022-09-29T11:14:54;99868.22;;;32.38;nan
49935;BME280;39898;41.762;26.200;2022-09-29T11:17:27;99876.69;;;32.57;nan
49935;BME280;39898;41.762;26.200;2022-09-29T11:20:00;99862.84;;;32.30;nan
49935;BME280;39898;41.762;26.200;2022-09-29T11:25:45;99858.78;;;32.48;nan
49935;BME280;39898;41.762;26.200;2022-09-29T11:36:43;99857.47;;;32.59;nan
49935;BME280;39898;41.762;26.200;2022-09-29T11:39:28;99872.53;;;32.84;nan
49935;BME280;39898;41.762;26.200;2022-09-29T11:42:14;99851.63;;;32.84;nan
49935;BME280;39898;41.762;26.200;2022-09-29T11:45:03;99862.13;;;33.02;nan
49935;BME280;39898;41.762;26.200;2022-09-29T12:15:54;99854.03;;;32.79;nan
49935;BME280;39898;41.762;26.200;2022-09-29T12:18:37;99836.66;;;32.51;nan
49935;BME280;39898;41.762;26.200;2022-09-29T12:21:07;99863.50;;;32.69;nan
49935;BME280;39898;41.762;26.200;2022-09-29T12:23:42;99835.94;;;32.35;nan
49935;BME280;39898;41.762;26.200;2022-09-29T12:26:14;99854.56;;;32.60;nan
49935;BME280;39898;41.762;26.200;2022-09-29T12:28:55;99859.63;;;32.63;nan
49935;BME280;39898;41.762;26.200;2022-09-29T12:31:29;99863.00;;;32.51;nan
49935;BME280;39898;41.762;26.200;2022-09-29T12:34:21;99854.34;;;32.47;nan
49935;BME280;39898;41.762;26.200;2022-09-29T12:37:00;99851.84;;;32.23;nan
49935;BME280;39898;41.762;26.200;2022-09-29T12:42:27;99854.50;;;32.08;nan
49935;BME280;39898;41.762;26.200;2022-09-29T12:45:10;99857.41;;;32.07;nan
49935;BME280;39898;41.762;26.200;2022-09-29T12:50:24;99862.16;;;32.50;nan
49935;BME280;39898;41.762;26.200;2022-09-29T12:53:08;99857.53;;;32.36;nan
49935;BME280;39898;41.762;26.200;2022-09-29T12:55:49;99845.47;;;32.68;nan
49935;BME280;39898;41.762;26.200;2022-09-29T12:58:42;99849.13;;;32.60;nan
49935;BME280;39898;41.762;26.200;2022-09-29T13:29:57;99854.81;;;31.91;nan
49935;BME280;39898;41.762;26.200;2022-09-29T13:32:28;99847.47;;;32.14;nan
49935;BME280;39898;41.762;26.200;2022-09-29T13:34:59;99862.19;;;31.82;nan
49935;BME280;39898;41.762;26.200;2022-09-29T13:37:41;99850.47;;;31.51;nan
49935;BME280;39898;41.762;26.200;2022-09-29T13:40:17;99857.94;;;31.49;nan
49935;BME280;39898;41.762;26.200;2022-09-29T13:42:46;99860.72;;;31.41;nan
49935;BME280;39898;41.762;26.200;2022-09-29T13:47:46;99851.72;;;31.41;nan
49935;BME280;39898;41.762;26.200;2022-09-29T13:50:45;99853.69;;;31.55;nan
49935;BME280;39898;41.762;26.200;2022-09-29T13:56:07;99863.16;;;31.28;nan
49935;BME280;39898;41.762;26.200;2022-09-29T13:58:58;99856.19;;;31.18;nan
49935;BME280;39898;41.762;26.200;2022-09-29T14:01:44;99850.34;;;30.98;nan
49935;BME280;39898;41.762;26.200;2022-09-29T14:07:04;99868.22;;;30.61;nan
49935;BME280;39898;41.762;26.200;2022-09-29T14:09:44;99871.97;;;30.44;nan
49935;BME280;39898;41.762;26.200;2022-09-29T14:12:20;99858.78;;;30.33;nan
49935;BME280;39898;41.762;26.200;2022-09-29T14:14:53;99878.09;;;30.22;nan
49935;BME280;39898;41.762;26.200;2022-09-29T14:17:30;99872.31;;;30.17;nan
49935;BME280;39898;41.762;26.200;2022-09-29T14:20:01;99879.91;;;29.97;nan
49935;BME280;39898;41.762;26.200;2022-09-29T14:30:45;99856.81;;;29.61;nan
49935;BME280;39898;41.762;26.200;2022-09-29T14:35:59;99897.56;;;29.51;nan
49935;BME280;39898;41.762;26.200;2022-09-29T14:38:45;99891.97;;;29.45;nan
49935;BME280;39898;41.762;26.200;2022-09-29T14:41:28;99891.81;;;29.46;nan
49935;BME280;39898;41.762;26.200;2022-09-29T15:03:44;99899.94;;;28.62;nan
49935;BME280;39898;41.762;26.200;2022-09-29T15:08:54;99911.97;;;28.24;nan
49935;BME280;39898;41.762;26.200;2022-09-29T15:13:55;99895.19;;;27.86;nan
49935;BME280;39898;41.762;26.200;2022-09-29T15:19:26;99924.19;;;27.83;nan
49935;BME280;39898;41.762;26.200;2022-09-29T15:22:00;99918.94;;;27.82;nan
49935;BME280;39898;41.762;26.200;2022-09-29T15:25:04;99923.44;;;27.64;nan
49935;BME280;39898;41.762;26.200;2022-09-29T15:27:37;99896.34;;;27.38;nan
49935;BME280;39898;41.762;26.200;2022-09-29T15:30:13;99917.69;;;27.32;nan
49935;BME280;39898;41.762;26.200;2022-09-29T15:32:43;99929.94;;;27.26;nan
49935;BME280;39898;41.762;26.200;2022-09-29T15:35:13;99904.75;;;26.99;nan
49935;BME280;39898;41.762;26.200;2022-09-29T15:40:20;99932.69;;;26.98;nan
49935;BME280;39898;41.762;26.200;2022-09-29T15:42:48;99952.72;;;26.95;nan
49935;BME280;39898;41.762;26.200;2022-09-29T15:45:25;99940.41;;;26.83;nan
49935;BME280;39898;41.762;26.200;2022-09-29T15:48:01;99941.00;;;26.77;nan
49935;BME280;39898;41.762;26.200;2022-09-29T15:50:31;99921.00;;;26.61;nan
49935;BME280;39898;41.762;26.200;2022-09-29T15:53:02;99942.72;;;26.69;nan
49935;BME280;39898;41.762;26.200;2022-09-29T15:55:30;99947.81;;;26.72;nan
49935;BME280;39898;41.762;26.200;2022-09-29T15:57:57;99947.69;;;26.54;nan
49935;BME280;39898;41.762;26.200;2022-09-29T16:05:31;99918.50;;;26.21;nan
49935;BME280;39898;41.762;26.200;2022-09-29T16:08:02;99956.03;;;26.13;nan
49935;BME280;39898;41.762;26.200;2022-09-29T16:10:33;99954.22;;;26.04;nan
49935;BME280;39898;41.762;26.200;2022-09-29T16:13:05;99957.41;;;25.89;nan
49935;BME280;39898;41.762;26.200;2022-09-29T16:18:10;99972.66;;;25.69;nan
49935;BME280;39898;41.762;26.200;2022-09-29T16:20:42;99978.31;;;25.56;nan
49935;BME280;39898;41.762;26.200;2022-09-29T16:23:20;99971.19;;;25.46;nan
49935;BME280;39898;41.762;26.200;2022-09-29T16:28:34;99998.47;;;25.32;nan
49935;BME280;39898;41.762;26.200;2022-09-29T16:31:09;99984.00;;;25.12;nan
49935;BME280;39898;41.762;26.200;2022-09-29T16:33:44;100014.31;;;25.14;nan
49935;BME280;39898;41.762;26.200;2022-09-29T16:38:40;100011.06;;;25.11;nan
49935;BME280;39898;41.762;26.200;2022-09-29T16:43:41;100032.50;;;25.22;nan
49935;BME280;39898;41.762;26.200;2022-09-29T16:46:21;100009.59;;;25.07;nan
49935;BME280;39898;41.762;26.200;2022-09-29T16:48:48;100033.63;;;25.19;nan
49935;BME280;39898;41.762;26.200;2022-09-29T16:51:21;100037.75;;;25.03;nan
49935;BME280;39898;41.762;26.200;2022-09-29T16:54:04;99996.72;;;24.80;nan